sensor_id;sensor_type;location;lat;lon;timestamp;P1;durP1;ratioP1;P2;durP2;ratioP2
14975;SDS011;7584;60.468;25.126;2022-07-24T00:01:35;3.43;;;3.03;;
14975;SDS011;7584;60.468;25.126;2022-07-24T00:04:02;4.47;;;3.10;;
14975;SDS011;7584;60.468;25.126;2022-07-24T00:06:28;5.87;;;3.10;;
14975;SDS011;7584;60.468;25.126;2022-07-24T00:08:53;3.43;;;2.90;;
14975;SDS011;7584;60.468;25.126;2022-07-24T00:11:18;3.93;;;3.07;;
14975;SDS011;7584;60.468;25.126;2022-07-24T00:13:43;5.23;;;3.00;;
14975;SDS011;7584;60.468;25.126;2022-07-24T00:16:09;4.83;;;3.13;;
14975;SDS011;7584;60.468;25.126;2022-07-24T00:18:34;3.53;;;3.23;;
14975;SDS011;7584;60.468;25.126;2022-07-24T00:21:00;3.17;;;2.83;;
14975;SDS011;7584;60.468;25.126;2022-07-24T00:23:25;3.50;;;2.87;;
14975;SDS011;7584;60.468;25.126;2022-07-24T00:25:51;3.37;;;2.53;;
14975;SDS011;7584;60.468;25.126;2022-07-24T00:28:16;4.90;;;3.17;;
14975;SDS011;7584;60.468;25.126;2022-07-24T00:30:42;3.10;;;2.77;;
14975;SDS011;7584;60.468;25.126;2022-07-24T00:33:07;3.30;;;2.60;;
14975;SDS011;7584;60.468;25.126;2022-07-24T00:35:33;3.10;;;2.37;;
14975;SDS011;7584;60.468;25.126;2022-07-24T00:37:58;2.40;;;2.20;;
14975;SDS011;7584;60.468;25.126;2022-07-24T00:40:23;4.67;;;2.37;;
14975;SDS011;7584;60.468;25.126;2022-07-24T00:42:49;3.50;;;2.40;;
14975;SDS011;7584;60.468;25.126;2022-07-24T00:45:15;2.30;;;2.10;;
14975;SDS011;7584;60.468;25.126;2022-07-24T00:47:40;3.03;;;2.20;;
14975;SDS011;7584;60.468;25.126;2022-07-24T00:50:05;4.93;;;2.37;;
14975;SDS011;7584;60.468;25.126;2022-07-24T00:52:31;2.50;;;2.30;;
14975;SDS011;7584;60.468;25.126;2022-07-24T00:54:56;5.03;;;2.47;;
14975;SDS011;7584;60.468;25.126;2022-07-24T00:57:22;2.60;;;2.40;;
14975;SDS011;7584;60.468;25.126;2022-07-24T00:59:47;4.10;;;2.50;;
14975;SDS011;7584;60.468;25.126;2022-07-24T01:02:12;2.60;;;2.10;;
14975;SDS011;7584;60.468;25.126;2022-07-24T01:04:38;2.90;;;1.90;;
14975;SDS011;7584;60.468;25.126;2022-07-24T01:07:03;3.00;;;2.30;;
14975;SDS011;7584;60.468;25.126;2022-07-24T01:09:29;2.40;;;2.20;;
14975;SDS011;7584;60.468;25.126;2022-07-24T01:11:54;2.67;;;2.47;;
14975;SDS011;7584;60.468;25.126;2022-07-24T01:14:20;2.50;;;2.30;;
14975;SDS011;7584;60.468;25.126;2022-07-24T01:16:45;3.43;;;2.30;;
14975;SDS011;7584;60.468;25.126;2022-07-24T01:19:11;2.20;;;2.00;;
14975;SDS011;7584;60.468;25.126;2022-07-24T01:21:36;2.40;;;2.20;;
14975;SDS011;7584;60.468;25.126;2022-07-24T01:24:01;2.70;;;2.23;;
14975;SDS011;7584;60.468;25.126;2022-07-24T01:26:27;3.23;;;1.97;;
14975;SDS011;7584;60.468;25.126;2022-07-24T01:28:52;2.33;;;2.13;;
14975;SDS011;7584;60.468;25.126;2022-07-24T01:31:17;3.23;;;1.90;;
14975;SDS011;7584;60.468;25.126;2022-07-24T01:33:43;3.43;;;2.20;;
14975;SDS011;7584;60.468;25.126;2022-07-24T01:36:08;2.00;;;1.77;;
14975;SDS011;7584;60.468;25.126;2022-07-24T01:38:33;2.60;;;2.00;;
14975;SDS011;7584;60.468;25.126;2022-07-24T01:40:59;4.13;;;2.00;;
14975;SDS011;7584;60.468;25.126;2022-07-24T01:43:24;2.10;;;1.90;;
14975;SDS011;7584;60.468;25.126;2022-07-24T01:45:49;4.23;;;1.93;;
14975;SDS011;7584;60.468;25.126;2022-07-24T01:48:15;2.80;;;1.80;;
14975;SDS011;7584;60.468;25.126;2022-07-24T01:50:41;2.87;;;1.70;;
14975;SDS011;7584;60.468;25.126;2022-07-24T01:53:06;2.67;;;1.73;;
14975;SDS011;7584;60.468;25.126;2022-07-24T01:55:32;1.77;;;1.63;;
14975;SDS011;7584;60.468;25.126;2022-07-24T01:57:57;2.40;;;1.80;;
14975;SDS011;7584;60.468;25.126;2022-07-24T02:00:22;2.47;;;1.70;;
14975;SDS011;7584;60.468;25.126;2022-07-24T02:02:48;1.77;;;1.43;;
14975;SDS011;7584;60.468;25.126;2022-07-24T02:05:13;2.50;;;1.60;;
14975;SDS011;7584;60.468;25.126;2022-07-24T02:07:42;2.33;;;1.67;;
14975;SDS011;7584;60.468;25.126;2022-07-24T02:10:08;2.13;;;1.40;;
14975;SDS011;7584;60.468;25.126;2022-07-24T02:12:34;2.00;;;1.57;;
14975;SDS011;7584;60.468;25.126;2022-07-24T02:14:59;2.00;;;1.50;;
14975;SDS011;7584;60.468;25.126;2022-07-24T02:17:24;2.07;;;1.70;;
14975;SDS011;7584;60.468;25.126;2022-07-24T02:19:50;2.73;;;1.40;;
14975;SDS011;7584;60.468;25.126;2022-07-24T02:22:15;3.53;;;1.60;;
14975;SDS011;7584;60.468;25.126;2022-07-24T02:24:40;3.90;;;1.57;;
14975;SDS011;7584;60.468;25.126;2022-07-24T02:27:06;2.57;;;1.60;;
14975;SDS011;7584;60.468;25.126;2022-07-24T02:29:31;1.40;;;1.20;;
14975;SDS011;7584;60.468;25.126;2022-07-24T02:31:56;1.77;;;1.43;;
14975;SDS011;7584;60.468;25.126;2022-07-24T02:34:21;7.73;;;1.33;;
14975;SDS011;7584;60.468;25.126;2022-07-24T02:36:47;1.80;;;1.30;;
14975;SDS011;7584;60.468;25.126;2022-07-24T02:39:12;2.43;;;1.50;;
14975;SDS011;7584;60.468;25.126;2022-07-24T02:41:37;2.00;;;1.40;;
14975;SDS011;7584;60.468;25.126;2022-07-24T02:44:03;2.83;;;1.53;;
14975;SDS011;7584;60.468;25.126;2022-07-24T02:46:28;1.33;;;1.23;;
14975;SDS011;7584;60.468;25.126;2022-07-24T02:48:53;1.47;;;1.23;;
14975;SDS011;7584;60.468;25.126;2022-07-24T02:51:19;4.80;;;1.50;;
14975;SDS011;7584;60.468;25.126;2022-07-24T02:53:44;6.10;;;1.63;;
14975;SDS011;7584;60.468;25.126;2022-07-24T02:56:09;2.40;;;1.30;;
14975;SDS011;7584;60.468;25.126;2022-07-24T02:58:34;3.43;;;1.67;;
14975;SDS011;7584;60.468;25.126;2022-07-24T03:01:00;1.83;;;1.40;;
14975;SDS011;7584;60.468;25.126;2022-07-24T03:03:25;1.80;;;1.40;;
14975;SDS011;7584;60.468;25.126;2022-07-24T03:05:50;3.30;;;1.47;;
14975;SDS011;7584;60.468;25.126;2022-07-24T03:08:16;3.10;;;1.27;;
14975;SDS011;7584;60.468;25.126;2022-07-24T03:10:41;2.20;;;1.20;;
14975;SDS011;7584;60.468;25.126;2022-07-24T03:13:06;2.07;;;1.20;;
14975;SDS011;7584;60.468;25.126;2022-07-24T03:15:32;4.20;;;1.50;;
14975;SDS011;7584;60.468;25.126;2022-07-24T03:17:57;1.53;;;1.20;;
14975;SDS011;7584;60.468;25.126;2022-07-24T03:20:23;1.40;;;1.30;;
14975;SDS011;7584;60.468;25.126;2022-07-24T03:22:49;3.50;;;1.13;;
14975;SDS011;7584;60.468;25.126;2022-07-24T03:25:15;2.23;;;1.40;;
14975;SDS011;7584;60.468;25.126;2022-07-24T03:27:40;3.97;;;1.45;;
14975;SDS011;7584;60.468;25.126;2022-07-24T03:30:06;2.17;;;1.20;;
14975;SDS011;7584;60.468;25.126;2022-07-24T03:32:32;1.80;;;1.20;;
14975;SDS011;7584;60.468;25.126;2022-07-24T03:34:57;1.90;;;1.17;;
14975;SDS011;7584;60.468;25.126;2022-07-24T03:37:23;2.57;;;1.37;;
14975;SDS011;7584;60.468;25.126;2022-07-24T03:39:48;1.13;;;1.00;;
14975;SDS011;7584;60.468;25.126;2022-07-24T03:42:13;1.70;;;1.20;;
14975;SDS011;7584;60.468;25.126;2022-07-24T03:44:39;1.23;;;1.13;;
14975;SDS011;7584;60.468;25.126;2022-07-24T03:47:04;1.83;;;1.30;;
14975;SDS011;7584;60.468;25.126;2022-07-24T03:49:29;3.35;;;1.00;;
14975;SDS011;7584;60.468;25.126;2022-07-24T03:51:55;1.60;;;1.50;;
14975;SDS011;7584;60.468;25.126;2022-07-24T03:54:20;1.55;;;1.25;;
14975;SDS011;7584;60.468;25.126;2022-07-24T03:56:46;2.08;;;1.50;;
14975;SDS011;7584;60.468;25.126;2022-07-24T03:59:12;2.65;;;1.02;;
14975;SDS011;7584;60.468;25.126;2022-07-24T04:01:37;2.33;;;1.50;;
14975;SDS011;7584;60.468;25.126;2022-07-24T04:04:02;3.70;;;1.75;;
14975;SDS011;7584;60.468;25.126;2022-07-24T04:06:30;3.85;;;1.30;;
14975;SDS011;7584;60.468;25.126;2022-07-24T04:08:55;2.65;;;1.35;;
14975;SDS011;7584;60.468;25.126;2022-07-24T04:11:20;2.45;;;1.33;;
14975;SDS011;7584;60.468;25.126;2022-07-24T04:13:46;1.98;;;1.35;;
14975;SDS011;7584;60.468;25.126;2022-07-24T04:16:11;4.32;;;1.40;;
14975;SDS011;7584;60.468;25.126;2022-07-24T04:18:37;2.83;;;1.67;;
14975;SDS011;7584;60.468;25.126;2022-07-24T04:21:02;1.70;;;1.38;;
14975;SDS011;7584;60.468;25.126;2022-07-24T04:23:27;2.38;;;1.40;;
14975;SDS011;7584;60.468;25.126;2022-07-24T04:25:53;2.83;;;1.50;;
14975;SDS011;7584;60.468;25.126;2022-07-24T04:28:18;2.55;;;1.23;;
14975;SDS011;7584;60.468;25.126;2022-07-24T04:30:43;1.92;;;1.20;;
14975;SDS011;7584;60.468;25.126;2022-07-24T04:33:08;1.92;;;1.20;;
14975;SDS011;7584;60.468;25.126;2022-07-24T04:35:34;2.78;;;1.65;;
14975;SDS011;7584;60.468;25.126;2022-07-24T04:37:59;1.90;;;1.63;;
14975;SDS011;7584;60.468;25.126;2022-07-24T04:40:24;2.88;;;1.60;;
14975;SDS011;7584;60.468;25.126;2022-07-24T04:42:50;2.03;;;1.17;;
14975;SDS011;7584;60.468;25.126;2022-07-24T04:45:15;1.65;;;1.42;;
14975;SDS011;7584;60.468;25.126;2022-07-24T04:47:40;1.95;;;1.55;;
14975;SDS011;7584;60.468;25.126;2022-07-24T04:50:06;2.92;;;1.50;;
14975;SDS011;7584;60.468;25.126;2022-07-24T04:52:31;1.25;;;1.15;;
14975;SDS011;7584;60.468;25.126;2022-07-24T04:54:57;3.45;;;1.58;;
14975;SDS011;7584;60.468;25.126;2022-07-24T04:57:22;1.70;;;1.40;;
14975;SDS011;7584;60.468;25.126;2022-07-24T04:59:47;5.18;;;2.05;;
14975;SDS011;7584;60.468;25.126;2022-07-24T05:02:13;3.08;;;2.00;;
14975;SDS011;7584;60.468;25.126;2022-07-24T05:04:38;5.55;;;2.10;;
14975;SDS011;7584;60.468;25.126;2022-07-24T05:07:03;5.00;;;1.73;;
14975;SDS011;7584;60.468;25.126;2022-07-24T05:09:28;5.85;;;2.22;;
14975;SDS011;7584;60.468;25.126;2022-07-24T05:11:54;7.20;;;2.78;;
14975;SDS011;7584;60.468;25.126;2022-07-24T05:14:19;4.95;;;2.67;;
14975;SDS011;7584;60.468;25.126;2022-07-24T05:16:45;5.47;;;2.30;;
14975;SDS011;7584;60.468;25.126;2022-07-24T05:19:10;4.28;;;2.42;;
14975;SDS011;7584;60.468;25.126;2022-07-24T05:21:35;4.90;;;2.63;;
14975;SDS011;7584;60.468;25.126;2022-07-24T05:24:00;5.45;;;2.50;;
14975;SDS011;7584;60.468;25.126;2022-07-24T05:26:27;5.20;;;2.40;;
14975;SDS011;7584;60.468;25.126;2022-07-24T05:28:53;3.10;;;2.15;;
14975;SDS011;7584;60.468;25.126;2022-07-24T05:31:18;3.63;;;2.05;;
14975;SDS011;7584;60.468;25.126;2022-07-24T05:33:43;6.18;;;2.13;;
14975;SDS011;7584;60.468;25.126;2022-07-24T05:36:09;2.80;;;2.05;;
14975;SDS011;7584;60.468;25.126;2022-07-24T05:38:34;5.07;;;2.10;;
14975;SDS011;7584;60.468;25.126;2022-07-24T05:40:59;3.97;;;1.85;;
14975;SDS011;7584;60.468;25.126;2022-07-24T05:43:26;4.97;;;2.20;;
14975;SDS011;7584;60.468;25.126;2022-07-24T05:45:52;5.28;;;1.80;;
14975;SDS011;7584;60.468;25.126;2022-07-24T05:48:17;6.15;;;1.95;;
14975;SDS011;7584;60.468;25.126;2022-07-24T05:50:42;3.35;;;2.00;;
14975;SDS011;7584;60.468;25.126;2022-07-24T05:53:08;2.78;;;1.95;;
14975;SDS011;7584;60.468;25.126;2022-07-24T05:55:33;3.58;;;2.05;;
14975;SDS011;7584;60.468;25.126;2022-07-24T05:57:58;4.82;;;2.55;;
14975;SDS011;7584;60.468;25.126;2022-07-24T06:00:23;5.07;;;2.45;;
14975;SDS011;7584;60.468;25.126;2022-07-24T06:02:49;4.93;;;2.10;;
14975;SDS011;7584;60.468;25.126;2022-07-24T06:05:14;3.58;;;2.30;;
14975;SDS011;7584;60.468;25.126;2022-07-24T06:07:43;4.90;;;2.55;;
14975;SDS011;7584;60.468;25.126;2022-07-24T06:10:08;3.47;;;2.13;;
14975;SDS011;7584;60.468;25.126;2022-07-24T06:12:34;7.13;;;2.92;;
14975;SDS011;7584;60.468;25.126;2022-07-24T06:14:59;3.63;;;2.28;;
14975;SDS011;7584;60.468;25.126;2022-07-24T06:17:24;3.30;;;2.40;;
14975;SDS011;7584;60.468;25.126;2022-07-24T06:19:49;3.60;;;2.15;;
14975;SDS011;7584;60.468;25.126;2022-07-24T06:22:15;3.45;;;2.05;;
14975;SDS011;7584;60.468;25.126;2022-07-24T06:24:40;3.67;;;2.28;;
14975;SDS011;7584;60.468;25.126;2022-07-24T06:27:05;6.22;;;2.53;;
14975;SDS011;7584;60.468;25.126;2022-07-24T06:29:31;4.43;;;2.50;;
14975;SDS011;7584;60.468;25.126;2022-07-24T06:31:56;5.03;;;2.00;;
14975;SDS011;7584;60.468;25.126;2022-07-24T06:34:21;7.97;;;2.40;;
14975;SDS011;7584;60.468;25.126;2022-07-24T06:36:49;4.13;;;2.00;;
14975;SDS011;7584;60.468;25.126;2022-07-24T06:39:14;2.10;;;1.90;;
14975;SDS011;7584;60.468;25.126;2022-07-24T06:41:40;4.28;;;2.00;;
14975;SDS011;7584;60.468;25.126;2022-07-24T06:44:05;2.53;;;1.80;;
14975;SDS011;7584;60.468;25.126;2022-07-24T06:46:30;2.70;;;1.77;;
14975;SDS011;7584;60.468;25.126;2022-07-24T06:48:56;5.47;;;2.20;;
14975;SDS011;7584;60.468;25.126;2022-07-24T06:51:21;3.38;;;1.90;;
14975;SDS011;7584;60.468;25.126;2022-07-24T06:53:46;4.93;;;2.10;;
14975;SDS011;7584;60.468;25.126;2022-07-24T06:56:12;4.07;;;2.00;;
14975;SDS011;7584;60.468;25.126;2022-07-24T06:58:37;4.38;;;2.13;;
14975;SDS011;7584;60.468;25.126;2022-07-24T07:01:02;2.22;;;1.70;;
14975;SDS011;7584;60.468;25.126;2022-07-24T07:03:28;4.40;;;2.08;;
14975;SDS011;7584;60.468;25.126;2022-07-24T07:05:53;4.47;;;1.98;;
14975;SDS011;7584;60.468;25.126;2022-07-24T07:08:18;3.67;;;1.98;;
14975;SDS011;7584;60.468;25.126;2022-07-24T07:10:44;5.13;;;1.90;;
14975;SDS011;7584;60.468;25.126;2022-07-24T07:13:09;3.17;;;1.80;;
14975;SDS011;7584;60.468;25.126;2022-07-24T07:15:34;2.65;;;1.58;;
14975;SDS011;7584;60.468;25.126;2022-07-24T07:18:01;3.00;;;1.80;;
14975;SDS011;7584;60.468;25.126;2022-07-24T07:20:26;1.70;;;1.38;;
14975;SDS011;7584;60.468;25.126;2022-07-24T07:22:51;2.42;;;1.52;;
14975;SDS011;7584;60.468;25.126;2022-07-24T07:25:16;4.75;;;2.20;;
14975;SDS011;7584;60.468;25.126;2022-07-24T07:27:42;2.88;;;1.80;;
14975;SDS011;7584;60.468;25.126;2022-07-24T07:30:07;3.97;;;2.05;;
14975;SDS011;7584;60.468;25.126;2022-07-24T07:32:34;2.47;;;1.55;;
14975;SDS011;7584;60.468;25.126;2022-07-24T07:34:59;3.25;;;2.03;;
14975;SDS011;7584;60.468;25.126;2022-07-24T07:37:24;3.25;;;2.00;;
14975;SDS011;7584;60.468;25.126;2022-07-24T07:39:50;2.58;;;1.60;;
14975;SDS011;7584;60.468;25.126;2022-07-24T07:42:15;3.88;;;2.30;;
14975;SDS011;7584;60.468;25.126;2022-07-24T07:44:40;4.38;;;2.08;;
14975;SDS011;7584;60.468;25.126;2022-07-24T07:47:06;2.63;;;2.05;;
14975;SDS011;7584;60.468;25.126;2022-07-24T07:49:31;4.03;;;2.42;;
14975;SDS011;7584;60.468;25.126;2022-07-24T07:51:56;2.72;;;2.22;;
14975;SDS011;7584;60.468;25.126;2022-07-24T07:54:21;3.05;;;2.33;;
14975;SDS011;7584;60.468;25.126;2022-07-24T07:56:47;2.75;;;2.15;;
14975;SDS011;7584;60.468;25.126;2022-07-24T07:59:12;3.33;;;1.83;;
14975;SDS011;7584;60.468;25.126;2022-07-24T08:01:37;2.40;;;1.98;;
14975;SDS011;7584;60.468;25.126;2022-07-24T08:04:03;2.10;;;1.70;;
14975;SDS011;7584;60.468;25.126;2022-07-24T08:06:28;3.20;;;2.22;;
14975;SDS011;7584;60.468;25.126;2022-07-24T08:08:54;3.25;;;1.90;;
14975;SDS011;7584;60.468;25.126;2022-07-24T08:11:19;2.58;;;1.80;;
14975;SDS011;7584;60.468;25.126;2022-07-24T08:13:44;2.80;;;1.88;;
14975;SDS011;7584;60.468;25.126;2022-07-24T08:16:10;2.03;;;1.55;;
14975;SDS011;7584;60.468;25.126;2022-07-24T08:18:35;2.30;;;1.80;;
14975;SDS011;7584;60.468;25.126;2022-07-24T08:21:00;1.63;;;1.30;;
14975;SDS011;7584;60.468;25.126;2022-07-24T08:23:26;1.52;;;1.30;;
14975;SDS011;7584;60.468;25.126;2022-07-24T08:25:51;1.70;;;1.13;;
14975;SDS011;7584;60.468;25.126;2022-07-24T08:28:16;2.13;;;1.02;;
14975;SDS011;7584;60.468;25.126;2022-07-24T08:30:42;1.05;;;0.95;;
14975;SDS011;7584;60.468;25.126;2022-07-24T08:33:08;1.20;;;0.80;;
14975;SDS011;7584;60.468;25.126;2022-07-24T08:35:33;2.03;;;0.85;;
14975;SDS011;7584;60.468;25.126;2022-07-24T08:37:59;0.90;;;0.80;;
14975;SDS011;7584;60.468;25.126;2022-07-24T08:40:24;1.00;;;0.90;;
14975;SDS011;7584;60.468;25.126;2022-07-24T08:42:50;1.38;;;1.13;;
14975;SDS011;7584;60.468;25.126;2022-07-24T08:45:15;1.20;;;1.10;;
14975;SDS011;7584;60.468;25.126;2022-07-24T08:47:43;1.52;;;1.00;;
14975;SDS011;7584;60.468;25.126;2022-07-24T08:50:09;2.17;;;0.80;;
14975;SDS011;7584;60.468;25.126;2022-07-24T08:52:35;0.98;;;0.70;;
14975;SDS011;7584;60.468;25.126;2022-07-24T08:55:01;0.80;;;0.75;;
14975;SDS011;7584;60.468;25.126;2022-07-24T08:57:26;0.88;;;0.88;;
14975;SDS011;7584;60.468;25.126;2022-07-24T08:59:51;1.20;;;0.77;;
14975;SDS011;7584;60.468;25.126;2022-07-24T09:02:17;1.35;;;0.75;;
14975;SDS011;7584;60.468;25.126;2022-07-24T09:04:43;1.77;;;0.85;;
14975;SDS011;7584;60.468;25.126;2022-07-24T09:07:19;0.80;;;0.80;;
14975;SDS011;7584;60.468;25.126;2022-07-24T09:09:56;1.27;;;0.95;;
14975;SDS011;7584;60.468;25.126;2022-07-24T09:12:22;1.70;;;0.90;;
14975;SDS011;7584;60.468;25.126;2022-07-24T09:14:47;1.27;;;0.90;;
14975;SDS011;7584;60.468;25.126;2022-07-24T09:17:14;3.53;;;0.98;;
14975;SDS011;7584;60.468;25.126;2022-07-24T09:25:48;0.85;;;0.75;;
14975;SDS011;7584;60.468;25.126;2022-07-24T09:27:57;1.77;;;1.00;;
14975;SDS011;7584;60.468;25.126;2022-07-24T09:32:58;1.20;;;1.10;;
14975;SDS011;7584;60.468;25.126;2022-07-24T09:35:32;1.52;;;1.17;;
14975;SDS011;7584;60.468;25.126;2022-07-24T09:37:57;2.10;;;1.30;;
14975;SDS011;7584;60.468;25.126;2022-07-24T09:40:33;1.92;;;1.33;;
14975;SDS011;7584;60.468;25.126;2022-07-24T09:43:12;2.15;;;1.38;;
14975;SDS011;7584;60.468;25.126;2022-07-24T09:45:57;2.15;;;1.55;;
14975;SDS011;7584;60.468;25.126;2022-07-24T09:48:32;1.23;;;1.08;;
14975;SDS011;7584;60.468;25.126;2022-07-24T09:50:59;1.83;;;1.50;;
14975;SDS011;7584;60.468;25.126;2022-07-24T09:53:26;2.70;;;1.30;;
14975;SDS011;7584;60.468;25.126;2022-07-24T09:58:23;2.50;;;1.40;;
14975;SDS011;7584;60.468;25.126;2022-07-24T10:00:49;2.20;;;1.45;;
14975;SDS011;7584;60.468;25.126;2022-07-24T10:03:14;2.03;;;1.45;;
14975;SDS011;7584;60.468;25.126;2022-07-24T10:05:42;1.38;;;1.27;;
14975;SDS011;7584;60.468;25.126;2022-07-24T10:08:08;2.97;;;1.45;;
14975;SDS011;7584;60.468;25.126;2022-07-24T10:10:38;1.70;;;1.48;;
14975;SDS011;7584;60.468;25.126;2022-07-24T10:13:04;3.17;;;1.42;;
14975;SDS011;7584;60.468;25.126;2022-07-24T10:15:30;3.60;;;1.80;;
14975;SDS011;7584;60.468;25.126;2022-07-24T10:20:33;1.75;;;1.60;;
14975;SDS011;7584;60.468;25.126;2022-07-24T10:23:03;2.03;;;1.58;;
14975;SDS011;7584;60.468;25.126;2022-07-24T10:25:28;3.85;;;2.00;;
14975;SDS011;7584;60.468;25.126;2022-07-24T10:27:55;1.80;;;1.45;;
14975;SDS011;7584;60.468;25.126;2022-07-24T10:30:23;14.20;;;2.30;;
14975;SDS011;7584;60.468;25.126;2022-07-24T10:32:49;3.00;;;1.52;;
14975;SDS011;7584;60.468;25.126;2022-07-24T10:35:18;1.65;;;1.33;;
14975;SDS011;7584;60.468;25.126;2022-07-24T10:45:35;2.50;;;1.30;;
14975;SDS011;7584;60.468;25.126;2022-07-24T10:53:22;1.70;;;1.35;;
14975;SDS011;7584;60.468;25.126;2022-07-24T10:55:47;1.77;;;1.50;;
14975;SDS011;7584;60.468;25.126;2022-07-24T10:58:13;2.08;;;1.60;;
14975;SDS011;7584;60.468;25.126;2022-07-24T11:00:49;2.00;;;1.40;;
14975;SDS011;7584;60.468;25.126;2022-07-24T11:05:42;1.70;;;1.60;;
14975;SDS011;7584;60.468;25.126;2022-07-24T11:26:39;1.92;;;1.70;;
14975;SDS011;7584;60.468;25.126;2022-07-24T11:31:37;2.38;;;2.08;;
14975;SDS011;7584;60.468;25.126;2022-07-24T11:34:02;2.10;;;1.75;;
14975;SDS011;7584;60.468;25.126;2022-07-24T11:36:29;1.80;;;1.70;;
14975;SDS011;7584;60.468;25.126;2022-07-24T11:38:54;1.70;;;1.60;;
14975;SDS011;7584;60.468;25.126;2022-07-24T11:41:19;2.17;;;1.98;;
14975;SDS011;7584;60.468;25.126;2022-07-24T11:43:54;2.13;;;1.92;;
14975;SDS011;7584;60.468;25.126;2022-07-24T11:46:32;2.58;;;1.98;;
14975;SDS011;7584;60.468;25.126;2022-07-24T11:49:08;2.13;;;1.98;;
14975;SDS011;7584;60.468;25.126;2022-07-24T11:51:41;5.88;;;2.28;;
14975;SDS011;7584;60.468;25.126;2022-07-24T11:54:06;1.98;;;1.73;;
14975;SDS011;7584;60.468;25.126;2022-07-24T11:56:32;1.60;;;1.50;;
14975;SDS011;7584;60.468;25.126;2022-07-24T11:58:57;2.33;;;1.70;;
14975;SDS011;7584;60.468;25.126;2022-07-24T12:01:23;2.20;;;2.00;;
14975;SDS011;7584;60.468;25.126;2022-07-24T12:03:52;1.80;;;1.70;;
14975;SDS011;7584;60.468;25.126;2022-07-24T12:06:18;2.90;;;1.83;;
14975;SDS011;7584;60.468;25.126;2022-07-24T12:08:44;3.50;;;2.13;;
14975;SDS011;7584;60.468;25.126;2022-07-24T12:11:09;4.28;;;2.20;;
14975;SDS011;7584;60.468;25.126;2022-07-24T12:13:36;2.35;;;2.15;;
14975;SDS011;7584;60.468;25.126;2022-07-24T12:16:05;2.17;;;1.88;;
14975;SDS011;7584;60.468;25.126;2022-07-24T12:18:30;3.45;;;2.25;;
14975;SDS011;7584;60.468;25.126;2022-07-24T12:21:02;1.95;;;1.85;;
14975;SDS011;7584;60.468;25.126;2022-07-24T12:23:28;3.05;;;1.80;;
14975;SDS011;7584;60.468;25.126;2022-07-24T12:25:56;2.83;;;2.00;;
14975;SDS011;7584;60.468;25.126;2022-07-24T12:28:21;2.40;;;2.17;;
14975;SDS011;7584;60.468;25.126;2022-07-24T12:30:48;2.28;;;2.03;;
14975;SDS011;7584;60.468;25.126;2022-07-24T12:38:29;2.00;;;1.70;;
14975;SDS011;7584;60.468;25.126;2022-07-24T12:41:02;2.50;;;1.80;;
14975;SDS011;7584;60.468;25.126;2022-07-24T12:43:27;1.88;;;1.73;;
14975;SDS011;7584;60.468;25.126;2022-07-24T12:46:09;2.58;;;1.67;;
14975;SDS011;7584;60.468;25.126;2022-07-24T12:48:34;2.10;;;1.85;;
14975;SDS011;7584;60.468;25.126;2022-07-24T12:51:09;2.05;;;1.85;;
14975;SDS011;7584;60.468;25.126;2022-07-24T12:53:37;2.72;;;1.77;;
14975;SDS011;7584;60.468;25.126;2022-07-24T12:56:03;2.13;;;1.85;;
14975;SDS011;7584;60.468;25.126;2022-07-24T12:58:29;2.50;;;2.10;;
14975;SDS011;7584;60.468;25.126;2022-07-24T13:00:57;2.15;;;1.95;;
14975;SDS011;7584;60.468;25.126;2022-07-24T13:03:25;2.08;;;1.98;;
14975;SDS011;7584;60.468;25.126;2022-07-24T13:05:54;2.17;;;1.98;;
14975;SDS011;7584;60.468;25.126;2022-07-24T13:08:19;2.58;;;2.38;;
14975;SDS011;7584;60.468;25.126;2022-07-24T13:10:45;3.35;;;2.40;;
14975;SDS011;7584;60.468;25.126;2022-07-24T13:13:10;3.30;;;2.15;;
14975;SDS011;7584;60.468;25.126;2022-07-24T13:15:35;3.00;;;2.70;;
14975;SDS011;7584;60.468;25.126;2022-07-24T13:18:00;3.60;;;2.70;;
14975;SDS011;7584;60.468;25.126;2022-07-24T13:20:26;2.70;;;2.50;;
14975;SDS011;7584;60.468;25.126;2022-07-24T13:22:51;3.20;;;2.90;;
14975;SDS011;7584;60.468;25.126;2022-07-24T13:25:16;2.70;;;2.50;;
14975;SDS011;7584;60.468;25.126;2022-07-24T13:27:42;2.85;;;2.65;;
14975;SDS011;7584;60.468;25.126;2022-07-24T13:30:07;2.90;;;2.60;;
14975;SDS011;7584;60.468;25.126;2022-07-24T13:32:33;3.33;;;2.60;;
14975;SDS011;7584;60.468;25.126;2022-07-24T13:34:58;3.53;;;2.42;;
14975;SDS011;7584;60.468;25.126;2022-07-24T13:37:23;3.13;;;2.80;;
14975;SDS011;7584;60.468;25.126;2022-07-24T13:39:49;2.60;;;2.20;;
14975;SDS011;7584;60.468;25.126;2022-07-24T13:42:14;2.75;;;2.45;;
14975;SDS011;7584;60.468;25.126;2022-07-24T13:44:39;2.92;;;2.53;;
14975;SDS011;7584;60.468;25.126;2022-07-24T13:47:05;2.55;;;2.35;;
14975;SDS011;7584;60.468;25.126;2022-07-24T13:49:30;4.55;;;2.25;;
14975;SDS011;7584;60.468;25.126;2022-07-24T13:51:56;2.65;;;2.15;;
14975;SDS011;7584;60.468;25.126;2022-07-24T13:54:21;2.17;;;1.95;;
14975;SDS011;7584;60.468;25.126;2022-07-24T13:56:46;2.30;;;2.10;;
14975;SDS011;7584;60.468;25.126;2022-07-24T13:59:12;3.00;;;2.00;;
14975;SDS011;7584;60.468;25.126;2022-07-24T14:01:37;3.40;;;2.38;;
14975;SDS011;7584;60.468;25.126;2022-07-24T14:04:05;2.33;;;2.13;;
14975;SDS011;7584;60.468;25.126;2022-07-24T14:06:34;2.20;;;1.90;;
14975;SDS011;7584;60.468;25.126;2022-07-24T14:09:00;2.63;;;2.10;;
14975;SDS011;7584;60.468;25.126;2022-07-24T14:11:25;2.42;;;2.22;;
14975;SDS011;7584;60.468;25.126;2022-07-24T14:13:50;2.63;;;2.17;;
14975;SDS011;7584;60.468;25.126;2022-07-24T14:16:16;1.95;;;1.85;;
14975;SDS011;7584;60.468;25.126;2022-07-24T14:18:41;2.10;;;2.00;;
14975;SDS011;7584;60.468;25.126;2022-07-24T14:21:06;1.95;;;1.80;;
14975;SDS011;7584;60.468;25.126;2022-07-24T14:23:31;3.00;;;2.33;;
14975;SDS011;7584;60.468;25.126;2022-07-24T14:25:57;2.55;;;2.20;;
14975;SDS011;7584;60.468;25.126;2022-07-24T14:28:22;2.58;;;2.38;;
14975;SDS011;7584;60.468;25.126;2022-07-24T14:30:47;2.28;;;2.10;;
14975;SDS011;7584;60.468;25.126;2022-07-24T14:33:13;2.38;;;2.20;;
14975;SDS011;7584;60.468;25.126;2022-07-24T14:35:38;2.33;;;2.13;;
14975;SDS011;7584;60.468;25.126;2022-07-24T14:38:03;3.00;;;2.15;;
14975;SDS011;7584;60.468;25.126;2022-07-24T14:40:29;2.80;;;2.30;;
14975;SDS011;7584;60.468;25.126;2022-07-24T14:42:54;2.22;;;2.13;;
14975;SDS011;7584;60.468;25.126;2022-07-24T14:45:20;2.40;;;2.10;;
14975;SDS011;7584;60.468;25.126;2022-07-24T14:47:45;3.20;;;2.15;;
14975;SDS011;7584;60.468;25.126;2022-07-24T14:50:10;2.13;;;1.92;;
14975;SDS011;7584;60.468;25.126;2022-07-24T14:52:36;2.20;;;2.00;;
14975;SDS011;7584;60.468;25.126;2022-07-24T14:55:02;2.40;;;1.88;;
14975;SDS011;7584;60.468;25.126;2022-07-24T14:57:27;2.45;;;1.90;;
14975;SDS011;7584;60.468;25.126;2022-07-24T14:59:53;2.58;;;1.90;;
14975;SDS011;7584;60.468;25.126;2022-07-24T15:02:18;1.80;;;1.70;;
14975;SDS011;7584;60.468;25.126;2022-07-24T15:04:43;1.83;;;1.73;;
14975;SDS011;7584;60.468;25.126;2022-07-24T15:07:08;2.25;;;1.58;;
14975;SDS011;7584;60.468;25.126;2022-07-24T15:09:34;2.17;;;1.88;;
14975;SDS011;7584;60.468;25.126;2022-07-24T15:11:59;2.28;;;2.05;;
14975;SDS011;7584;60.468;25.126;2022-07-24T15:14:24;2.13;;;2.00;;
14975;SDS011;7584;60.468;25.126;2022-07-24T15:16:50;2.50;;;1.83;;
14975;SDS011;7584;60.468;25.126;2022-07-24T15:19:15;2.13;;;2.03;;
14975;SDS011;7584;60.468;25.126;2022-07-24T15:21:40;1.80;;;1.70;;
14975;SDS011;7584;60.468;25.126;2022-07-24T15:24:06;2.00;;;1.90;;
14975;SDS011;7584;60.468;25.126;2022-07-24T15:26:31;2.78;;;1.90;;
14975;SDS011;7584;60.468;25.126;2022-07-24T15:28:56;2.08;;;1.98;;
14975;SDS011;7584;60.468;25.126;2022-07-24T15:31:22;2.83;;;1.90;;
14975;SDS011;7584;60.468;25.126;2022-07-24T15:33:47;1.80;;;1.70;;
14975;SDS011;7584;60.468;25.126;2022-07-24T15:36:12;1.88;;;1.73;;